sensor_id;sensor_type;location;lat;lon;timestamp;temperature;humidity
10492;DHT22;5293;51.464;-2.566;2024-03-02T00:02:24;5.30;99.90
10492;DHT22;5293;51.464;-2.566;2024-03-02T00:04:51;5.30;99.90
10492;DHT22;5293;51.464;-2.566;2024-03-02T00:07:17;5.30;99.90
10492;DHT22;5293;51.464;-2.566;2024-03-02T00:09:43;5.30;99.90
10492;DHT22;5293;51.464;-2.566;2024-03-02T00:12:11;5.30;99.90
10492;DHT22;5293;51.464;-2.566;2024-03-02T00:14:41;5.30;99.90
10492;DHT22;5293;51.464;-2.566;2024-03-02T00:17:24;5.30;99.90
10492;DHT22;5293;51.464;-2.566;2024-03-02T00:19:50;5.30;99.90
10492;DHT22;5293;51.464;-2.566;2024-03-02T00:22:16;5.30;99.90
10492;DHT22;5293;51.464;-2.566;2024-03-02T00:24:41;5.30;99.90
10492;DHT22;5293;51.464;-2.566;2024-03-02T00:27:07;5.20;99.90
10492;DHT22;5293;51.464;-2.566;2024-03-02T00:29:36;5.20;99.90
10492;DHT22;5293;51.464;-2.566;2024-03-02T00:32:02;5.20;99.90
10492;DHT22;5293;51.464;-2.566;2024-03-02T00:34:29;5.30;99.90
10492;DHT22;5293;51.464;-2.566;2024-03-02T00:36:57;5.40;99.90
10492;DHT22;5293;51.464;-2.566;2024-03-02T00:39:25;5.40;99.90
10492;DHT22;5293;51.464;-2.566;2024-03-02T00:41:50;5.40;99.90
10492;DHT22;5293;51.464;-2.566;2024-03-02T00:44:25;5.40;99.90
10492;DHT22;5293;51.464;-2.566;2024-03-02T00:46:52;5.40;99.90
10492;DHT22;5293;51.464;-2.566;2024-03-02T00:49:21;5.50;99.90
10492;DHT22;5293;51.464;-2.566;2024-03-02T00:51:49;5.40;99.90
10492;DHT22;5293;51.464;-2.566;2024-03-02T00:54:15;5.40;99.90
10492;DHT22;5293;51.464;-2.566;2024-03-02T00:56:42;5.50;99.90
10492;DHT22;5293;51.464;-2.566;2024-03-02T00:59:09;5.50;99.90
10492;DHT22;5293;51.464;-2.566;2024-03-02T01:01:35;5.50;99.90
10492;DHT22;5293;51.464;-2.566;2024-03-02T01:04:01;5.40;99.90
10492;DHT22;5293;51.464;-2.566;2024-03-02T01:06:26;5.40;99.90
10492;DHT22;5293;51.464;-2.566;2024-03-02T01:08:53;5.40;99.90
10492;DHT22;5293;51.464;-2.566;2024-03-02T01:11:19;5.40;99.90
10492;DHT22;5293;51.464;-2.566;2024-03-02T01:13:47;5.40;99.90
10492;DHT22;5293;51.464;-2.566;2024-03-02T01:16:13;5.50;99.90
10492;DHT22;5293;51.464;-2.566;2024-03-02T01:18:39;5.50;99.90
10492;DHT22;5293;51.464;-2.566;2024-03-02T01:21:05;5.50;99.90
10492;DHT22;5293;51.464;-2.566;2024-03-02T01:23:30;5.50;99.90
10492;DHT22;5293;51.464;-2.566;2024-03-02T01:25:56;5.60;99.90
10492;DHT22;5293;51.464;-2.566;2024-03-02T01:28:21;5.50;99.90
10492;DHT22;5293;51.464;-2.566;2024-03-02T01:30:48;5.50;99.90
10492;DHT22;5293;51.464;-2.566;2024-03-02T01:33:13;5.50;99.90
10492;DHT22;5293;51.464;-2.566;2024-03-02T01:35:39;5.50;99.90
10492;DHT22;5293;51.464;-2.566;2024-03-02T01:38:05;5.50;99.90
10492;DHT22;5293;51.464;-2.566;2024-03-02T01:40:37;5.50;99.90
10492;DHT22;5293;51.464;-2.566;2024-03-02T01:43:04;5.60;99.90
10492;DHT22;5293;51.464;-2.566;2024-03-02T01:45:30;5.60;99.90
10492;DHT22;5293;51.464;-2.566;2024-03-02T01:47:56;5.60;99.90
10492;DHT22;5293;51.464;-2.566;2024-03-02T01:50:29;5.70;99.90
10492;DHT22;5293;51.464;-2.566;2024-03-02T01:52:56;5.70;99.90
10492;DHT22;5293;51.464;-2.566;2024-03-02T01:55:22;5.70;99.90
10492;DHT22;5293;51.464;-2.566;2024-03-02T01:57:48;5.70;99.90
10492;DHT22;5293;51.464;-2.566;2024-03-02T02:00:15;5.70;99.90
10492;DHT22;5293;51.464;-2.566;2024-03-02T02:02:41;5.80;99.90
10492;DHT22;5293;51.464;-2.566;2024-03-02T02:05:07;5.70;99.90
10492;DHT22;5293;51.464;-2.566;2024-03-02T02:07:32;5.60;99.90
10492;DHT22;5293;51.464;-2.566;2024-03-02T02:10:00;5.60;99.90
10492;DHT22;5293;51.464;-2.566;2024-03-02T02:12:26;5.70;99.90
10492;DHT22;5293;51.464;-2.566;2024-03-02T02:14:52;5.70;99.90
10492;DHT22;5293;51.464;-2.566;2024-03-02T02:17:18;5.70;99.90
10492;DHT22;5293;51.464;-2.566;2024-03-02T02:19:44;5.70;99.90
10492;DHT22;5293;51.464;-2.566;2024-03-02T02:22:10;5.80;99.90
10492;DHT22;5293;51.464;-2.566;2024-03-02T02:24:42;5.80;99.90
10492;DHT22;5293;51.464;-2.566;2024-03-02T02:27:09;5.80;99.90
10492;DHT22;5293;51.464;-2.566;2024-03-02T02:29:35;5.90;99.90
10492;DHT22;5293;51.464;-2.566;2024-03-02T02:32:01;5.90;99.90
10492;DHT22;5293;51.464;-2.566;2024-03-02T02:34:26;5.90;99.90
10492;DHT22;5293;51.464;-2.566;2024-03-02T02:36:52;5.80;99.90
10492;DHT22;5293;51.464;-2.566;2024-03-02T02:39:20;5.80;99.90
10492;DHT22;5293;51.464;-2.566;2024-03-02T02:41:48;5.90;99.90
10492;DHT22;5293;51.464;-2.566;2024-03-02T02:44:13;5.90;99.90
10492;DHT22;5293;51.464;-2.566;2024-03-02T02:46:40;5.90;99.90
10492;DHT22;5293;51.464;-2.566;2024-03-02T02:49:06;5.90;99.90
10492;DHT22;5293;51.464;-2.566;2024-03-02T02:51:32;5.90;99.90
10492;DHT22;5293;51.464;-2.566;2024-03-02T02:53:58;6.00;99.90
10492;DHT22;5293;51.464;-2.566;2024-03-02T02:56:23;6.00;99.90
10492;DHT22;5293;51.464;-2.566;2024-03-02T02:58:49;6.00;99.90
10492;DHT22;5293;51.464;-2.566;2024-03-02T03:01:15;6.00;99.90
10492;DHT22;5293;51.464;-2.566;2024-03-02T03:03:43;5.90;99.90
10492;DHT22;5293;51.464;-2.566;2024-03-02T03:06:09;5.90;99.90
10492;DHT22;5293;51.464;-2.566;2024-03-02T03:08:35;5.80;99.90
10492;DHT22;5293;51.464;-2.566;2024-03-02T03:11:01;5.80;99.90
10492;DHT22;5293;51.464;-2.566;2024-03-02T03:13:27;5.70;99.90
10492;DHT22;5293;51.464;-2.566;2024-03-02T03:15:52;5.70;99.90
10492;DHT22;5293;51.464;-2.566;2024-03-02T03:18:19;5.70;99.90
10492;DHT22;5293;51.464;-2.566;2024-03-02T03:20:44;5.70;99.90
10492;DHT22;5293;51.464;-2.566;2024-03-02T03:23:11;5.60;99.90
10492;DHT22;5293;51.464;-2.566;2024-03-02T03:25:41;5.70;99.90
10492;DHT22;5293;51.464;-2.566;2024-03-02T03:28:07;5.60;99.90
10492;DHT22;5293;51.464;-2.566;2024-03-02T03:30:38;5.50;99.90
10492;DHT22;5293;51.464;-2.566;2024-03-02T03:33:05;5.60;99.90
10492;DHT22;5293;51.464;-2.566;2024-03-02T03:35:33;5.50;99.90
10492;DHT22;5293;51.464;-2.566;2024-03-02T03:38:00;5.30;99.90
10492;DHT22;5293;51.464;-2.566;2024-03-02T03:40:25;5.40;99.90
10492;DHT22;5293;51.464;-2.566;2024-03-02T03:42:51;5.30;99.90
10492;DHT22;5293;51.464;-2.566;2024-03-02T03:45:17;5.20;99.90
10492;DHT22;5293;51.464;-2.566;2024-03-02T03:47:43;5.20;99.90
10492;DHT22;5293;51.464;-2.566;2024-03-02T03:50:09;5.20;99.90
10492;DHT22;5293;51.464;-2.566;2024-03-02T03:52:35;5.30;99.90
10492;DHT22;5293;51.464;-2.566;2024-03-02T03:55:00;5.30;99.90
10492;DHT22;5293;51.464;-2.566;2024-03-02T03:57:27;5.40;99.90
10492;DHT22;5293;51.464;-2.566;2024-03-02T03:59:53;5.40;99.90
10492;DHT22;5293;51.464;-2.566;2024-03-02T04:02:19;5.30;99.90
10492;DHT22;5293;51.464;-2.566;2024-03-02T04:04:45;5.30;99.90
10492;DHT22;5293;51.464;-2.566;2024-03-02T04:07:10;5.30;99.90
10492;DHT22;5293;51.464;-2.566;2024-03-02T04:09:36;5.30;99.90
10492;DHT22;5293;51.464;-2.566;2024-03-02T04:12:02;5.30;99.90
10492;DHT22;5293;51.464;-2.566;2024-03-02T04:14:27;5.20;99.90
10492;DHT22;5293;51.464;-2.566;2024-03-02T04:16:53;5.30;99.90
10492;DHT22;5293;51.464;-2.566;2024-03-02T04:19:19;5.30;99.90
10492;DHT22;5293;51.464;-2.566;2024-03-02T04:21:44;5.20;99.90
10492;DHT22;5293;51.464;-2.566;2024-03-02T04:24:10;5.00;99.90
10492;DHT22;5293;51.464;-2.566;2024-03-02T04:26:36;5.00;99.90
10492;DHT22;5293;51.464;-2.566;2024-03-02T04:29:01;4.90;99.90
10492;DHT22;5293;51.464;-2.566;2024-03-02T04:31:27;4.80;99.90
10492;DHT22;5293;51.464;-2.566;2024-03-02T04:33:53;4.80;99.90
10492;DHT22;5293;51.464;-2.566;2024-03-02T04:36:19;4.80;99.90
10492;DHT22;5293;51.464;-2.566;2024-03-02T04:38:45;4.80;99.90
10492;DHT22;5293;51.464;-2.566;2024-03-02T04:41:13;4.70;99.90
10492;DHT22;5293;51.464;-2.566;2024-03-02T04:43:39;4.60;99.90
10492;DHT22;5293;51.464;-2.566;2024-03-02T04:46:05;4.50;99.90
10492;DHT22;5293;51.464;-2.566;2024-03-02T04:48:32;4.50;99.90
10492;DHT22;5293;51.464;-2.566;2024-03-02T04:50:58;4.10;99.90
10492;DHT22;5293;51.464;-2.566;2024-03-02T04:53:23;4.00;99.90
10492;DHT22;5293;51.464;-2.566;2024-03-02T04:55:49;3.90;99.90
10492;DHT22;5293;51.464;-2.566;2024-03-02T04:58:35;3.80;99.90
10492;DHT22;5293;51.464;-2.566;2024-03-02T05:01:01;3.80;99.90
10492;DHT22;5293;51.464;-2.566;2024-03-02T05:03:26;3.80;99.90
10492;DHT22;5293;51.464;-2.566;2024-03-02T05:05:52;3.70;99.90
10492;DHT22;5293;51.464;-2.566;2024-03-02T05:08:18;3.60;99.90
10492;DHT22;5293;51.464;-2.566;2024-03-02T05:10:44;3.60;99.90
10492;DHT22;5293;51.464;-2.566;2024-03-02T05:13:09;3.40;99.90
10492;DHT22;5293;51.464;-2.566;2024-03-02T05:15:35;3.30;99.90
10492;DHT22;5293;51.464;-2.566;2024-03-02T05:18:00;3.30;99.90
10492;DHT22;5293;51.464;-2.566;2024-03-02T05:20:28;3.30;99.90
10492;DHT22;5293;51.464;-2.566;2024-03-02T05:22:53;3.30;99.90
10492;DHT22;5293;51.464;-2.566;2024-03-02T05:25:19;3.20;99.90
10492;DHT22;5293;51.464;-2.566;2024-03-02T05:27:45;3.30;99.90
10492;DHT22;5293;51.464;-2.566;2024-03-02T05:30:12;3.30;99.90
10492;DHT22;5293;51.464;-2.566;2024-03-02T05:32:37;3.30;99.90
10492;DHT22;5293;51.464;-2.566;2024-03-02T05:35:03;3.30;99.90
10492;DHT22;5293;51.464;-2.566;2024-03-02T05:37:30;3.20;99.90
10492;DHT22;5293;51.464;-2.566;2024-03-02T05:39:56;3.20;99.90
10492;DHT22;5293;51.464;-2.566;2024-03-02T05:42:21;3.20;99.90
10492;DHT22;5293;51.464;-2.566;2024-03-02T05:44:47;3.30;99.90
10492;DHT22;5293;51.464;-2.566;2024-03-02T05:47:13;3.20;99.90
10492;DHT22;5293;51.464;-2.566;2024-03-02T05:49:38;3.30;99.90
10492;DHT22;5293;51.464;-2.566;2024-03-02T05:52:04;3.30;99.90
10492;DHT22;5293;51.464;-2.566;2024-03-02T05:54:30;3.40;99.90
10492;DHT22;5293;51.464;-2.566;2024-03-02T05:56:56;3.30;99.90
10492;DHT22;5293;51.464;-2.566;2024-03-02T05:59:21;3.30;99.90
10492;DHT22;5293;51.464;-2.566;2024-03-02T06:01:48;3.30;99.90
10492;DHT22;5293;51.464;-2.566;2024-03-02T06:04:16;3.20;99.90
10492;DHT22;5293;51.464;-2.566;2024-03-02T06:06:42;3.20;99.90
10492;DHT22;5293;51.464;-2.566;2024-03-02T06:09:08;3.30;99.90
10492;DHT22;5293;51.464;-2.566;2024-03-02T06:11:35;3.30;99.90
10492;DHT22;5293;51.464;-2.566;2024-03-02T06:14:02;3.30;99.90
10492;DHT22;5293;51.464;-2.566;2024-03-02T06:16:27;3.30;99.90
10492;DHT22;5293;51.464;-2.566;2024-03-02T06:18:53;3.20;99.90
10492;DHT22;5293;51.464;-2.566;2024-03-02T06:21:20;3.30;99.90
10492;DHT22;5293;51.464;-2.566;2024-03-02T06:23:45;3.20;99.90
10492;DHT22;5293;51.464;-2.566;2024-03-02T06:26:11;3.20;99.90
10492;DHT22;5293;51.464;-2.566;2024-03-02T06:28:38;3.20;99.90
10492;DHT22;5293;51.464;-2.566;2024-03-02T06:31:03;3.20;99.90
10492;DHT22;5293;51.464;-2.566;2024-03-02T06:33:29;3.20;99.90
10492;DHT22;5293;51.464;-2.566;2024-03-02T06:35:55;3.10;99.90
10492;DHT22;5293;51.464;-2.566;2024-03-02T06:38:20;3.20;99.90
10492;DHT22;5293;51.464;-2.566;2024-03-02T06:40:46;3.10;99.90
10492;DHT22;5293;51.464;-2.566;2024-03-02T06:43:12;3.10;99.90
10492;DHT22;5293;51.464;-2.566;2024-03-02T06:45:37;3.20;99.90
10492;DHT22;5293;51.464;-2.566;2024-03-02T06:48:03;3.20;99.90
10492;DHT22;5293;51.464;-2.566;2024-03-02T06:50:29;3.20;99.90
10492;DHT22;5293;51.464;-2.566;2024-03-02T06:52:55;3.20;99.90
10492;DHT22;5293;51.464;-2.566;2024-03-02T06:55:24;3.30;99.90
10492;DHT22;5293;51.464;-2.566;2024-03-02T06:57:52;3.40;99.90
10492;DHT22;5293;51.464;-2.566;2024-03-02T07:00:18;3.40;99.90
10492;DHT22;5293;51.464;-2.566;2024-03-02T07:02:45;3.40;99.90
10492;DHT22;5293;51.464;-2.566;2024-03-02T07:05:11;3.40;99.90
10492;DHT22;5293;51.464;-2.566;2024-03-02T07:07:37;3.40;99.90
10492;DHT22;5293;51.464;-2.566;2024-03-02T07:10:04;3.40;99.90
10492;DHT22;5293;51.464;-2.566;2024-03-02T07:12:30;3.40;99.90
10492;DHT22;5293;51.464;-2.566;2024-03-02T07:14:57;3.50;99.90
10492;DHT22;5293;51.464;-2.566;2024-03-02T07:17:42;3.50;99.90
10492;DHT22;5293;51.464;-2.566;2024-03-02T07:20:08;3.50;99.90
10492;DHT22;5293;51.464;-2.566;2024-03-02T07:22:34;3.60;99.90
10492;DHT22;5293;51.464;-2.566;2024-03-02T07:24:59;3.60;99.90
10492;DHT22;5293;51.464;-2.566;2024-03-02T07:27:25;3.60;99.90
10492;DHT22;5293;51.464;-2.566;2024-03-02T07:29:51;3.60;99.90
10492;DHT22;5293;51.464;-2.566;2024-03-02T07:32:17;3.60;99.90
10492;DHT22;5293;51.464;-2.566;2024-03-02T07:34:42;3.60;99.90
10492;DHT22;5293;51.464;-2.566;2024-03-02T07:37:08;3.70;99.90
10492;DHT22;5293;51.464;-2.566;2024-03-02T07:39:34;3.70;99.90
10492;DHT22;5293;51.464;-2.566;2024-03-02T07:42:00;3.80;99.90
10492;DHT22;5293;51.464;-2.566;2024-03-02T07:44:26;3.80;99.90
10492;DHT22;5293;51.464;-2.566;2024-03-02T07:46:51;3.90;99.90
10492;DHT22;5293;51.464;-2.566;2024-03-02T07:49:18;3.90;99.90
10492;DHT22;5293;51.464;-2.566;2024-03-02T07:51:44;3.90;99.90
10492;DHT22;5293;51.464;-2.566;2024-03-02T07:54:10;3.90;99.90
10492;DHT22;5293;51.464;-2.566;2024-03-02T07:56:36;4.00;99.90
10492;DHT22;5293;51.464;-2.566;2024-03-02T07:59:02;4.10;99.90
10492;DHT22;5293;51.464;-2.566;2024-03-02T08:01:29;4.10;99.90
10492;DHT22;5293;51.464;-2.566;2024-03-02T08:04:01;4.20;99.90
10492;DHT22;5293;51.464;-2.566;2024-03-02T08:06:29;4.20;99.90
10492;DHT22;5293;51.464;-2.566;2024-03-02T08:08:59;4.20;99.90
10492;DHT22;5293;51.464;-2.566;2024-03-02T08:11:25;4.20;99.90
10492;DHT22;5293;51.464;-2.566;2024-03-02T08:13:51;4.20;99.90
10492;DHT22;5293;51.464;-2.566;2024-03-02T08:16:18;4.30;99.90
10492;DHT22;5293;51.464;-2.566;2024-03-02T08:18:50;4.30;99.90
10492;DHT22;5293;51.464;-2.566;2024-03-02T08:21:16;4.40;99.90
10492;DHT22;5293;51.464;-2.566;2024-03-02T08:23:43;4.50;99.90
10492;DHT22;5293;51.464;-2.566;2024-03-02T08:26:10;4.70;99.90
10492;DHT22;5293;51.464;-2.566;2024-03-02T08:28:35;4.70;99.90
10492;DHT22;5293;51.464;-2.566;2024-03-02T08:31:06;4.80;99.90
10492;DHT22;5293;51.464;-2.566;2024-03-02T08:33:32;4.80;99.90
10492;DHT22;5293;51.464;-2.566;2024-03-02T08:35:58;5.00;99.90
10492;DHT22;5293;51.464;-2.566;2024-03-02T08:38:24;5.10;99.90
10492;DHT22;5293;51.464;-2.566;2024-03-02T08:40:50;5.20;99.90
10492;DHT22;5293;51.464;-2.566;2024-03-02T08:43:15;5.20;99.90
10492;DHT22;5293;51.464;-2.566;2024-03-02T08:45:42;5.30;99.90
10492;DHT22;5293;51.464;-2.566;2024-03-02T08:48:08;5.30;99.90
10492;DHT22;5293;51.464;-2.566;2024-03-02T08:50:34;5.40;99.90
10492;DHT22;5293;51.464;-2.566;2024-03-02T08:53:00;5.40;99.90
10492;DHT22;5293;51.464;-2.566;2024-03-02T08:55:26;5.30;99.90
10492;DHT22;5293;51.464;-2.566;2024-03-02T08:57:52;5.10;99.90
10492;DHT22;5293;51.464;-2.566;2024-03-02T09:00:18;5.00;99.90
10492;DHT22;5293;51.464;-2.566;2024-03-02T09:02:44;4.90;99.90
10492;DHT22;5293;51.464;-2.566;2024-03-02T09:05:10;4.80;99.90
10492;DHT22;5293;51.464;-2.566;2024-03-02T09:07:36;4.90;99.90
10492;DHT22;5293;51.464;-2.566;2024-03-02T09:10:04;4.90;99.90
10492;DHT22;5293;51.464;-2.566;2024-03-02T09:12:30;4.90;99.90
10492;DHT22;5293;51.464;-2.566;2024-03-02T09:14:56;5.00;99.90
10492;DHT22;5293;51.464;-2.566;2024-03-02T09:17:22;5.00;99.90
10492;DHT22;5293;51.464;-2.566;2024-03-02T09:19:48;5.10;99.90
10492;DHT22;5293;51.464;-2.566;2024-03-02T09:22:14;5.10;99.90
10492;DHT22;5293;51.464;-2.566;2024-03-02T09:24:40;5.10;99.90
10492;DHT22;5293;51.464;-2.566;2024-03-02T09:27:05;5.20;99.90
10492;DHT22;5293;51.464;-2.566;2024-03-02T09:29:31;5.20;99.90
10492;DHT22;5293;51.464;-2.566;2024-03-02T09:31:57;5.30;99.90
10492;DHT22;5293;51.464;-2.566;2024-03-02T09:34:22;5.40;99.90
10492;DHT22;5293;51.464;-2.566;2024-03-02T09:36:48;5.40;99.90
10492;DHT22;5293;51.464;-2.566;2024-03-02T09:39:14;5.50;99.90
10492;DHT22;5293;51.464;-2.566;2024-03-02T09:41:40;5.40;99.90
10492;DHT22;5293;51.464;-2.566;2024-03-02T09:44:06;5.20;99.90
10492;DHT22;5293;51.464;-2.566;2024-03-02T09:46:31;5.20;99.90
10492;DHT22;5293;51.464;-2.566;2024-03-02T09:48:59;5.10;99.90
10492;DHT22;5293;51.464;-2.566;2024-03-02T09:51:25;5.10;99.90
10492;DHT22;5293;51.464;-2.566;2024-03-02T09:53:51;5.00;99.90
10492;DHT22;5293;51.464;-2.566;2024-03-02T09:56:17;5.00;99.90
10492;DHT22;5293;51.464;-2.566;2024-03-02T09:58:44;5.00;99.90
10492;DHT22;5293;51.464;-2.566;2024-03-02T10:01:09;5.10;99.90
10492;DHT22;5293;51.464;-2.566;2024-03-02T10:03:38;5.20;99.90
10492;DHT22;5293;51.464;-2.566;2024-03-02T10:08:46;5.40;99.90
10492;DHT22;5293;51.464;-2.566;2024-03-02T10:11:29;5.40;99.90
10492;DHT22;5293;51.464;-2.566;2024-03-02T10:14:14;5.40;99.90
10492;DHT22;5293;51.464;-2.566;2024-03-02T10:16:41;5.40;99.90
10492;DHT22;5293;51.464;-2.566;2024-03-02T10:19:23;5.50;99.90
10492;DHT22;5293;51.464;-2.566;2024-03-02T10:21:53;5.60;99.90
10492;DHT22;5293;51.464;-2.566;2024-03-02T10:24:22;5.80;99.90
10492;DHT22;5293;51.464;-2.566;2024-03-02T10:26:48;5.90;99.90
10492;DHT22;5293;51.464;-2.566;2024-03-02T10:29:14;5.90;99.90
10492;DHT22;5293;51.464;-2.566;2024-03-02T10:31:43;5.90;99.90
10492;DHT22;5293;51.464;-2.566;2024-03-02T10:34:10;6.00;99.90
10492;DHT22;5293;51.464;-2.566;2024-03-02T10:36:37;5.90;99.90
10492;DHT22;5293;51.464;-2.566;2024-03-02T10:39:06;6.00;99.90
10492;DHT22;5293;51.464;-2.566;2024-03-02T10:41:36;6.00;99.90
10492;DHT22;5293;51.464;-2.566;2024-03-02T10:44:03;6.10;99.90
10492;DHT22;5293;51.464;-2.566;2024-03-02T10:46:31;6.20;99.90
10492;DHT22;5293;51.464;-2.566;2024-03-02T10:48:57;6.20;99.90
10492;DHT22;5293;51.464;-2.566;2024-03-02T10:51:27;6.20;99.90
10492;DHT22;5293;51.464;-2.566;2024-03-02T10:53:54;6.20;99.90
10492;DHT22;5293;51.464;-2.566;2024-03-02T10:56:31;6.20;99.90
10492;DHT22;5293;51.464;-2.566;2024-03-02T10:59:03;6.10;99.90
10492;DHT22;5293;51.464;-2.566;2024-03-02T11:01:32;6.00;99.90
10492;DHT22;5293;51.464;-2.566;2024-03-02T11:03:59;6.10;99.90
10492;DHT22;5293;51.464;-2.566;2024-03-02T11:06:28;6.00;99.90
10492;DHT22;5293;51.464;-2.566;2024-03-02T11:08:55;5.80;99.90
10492;DHT22;5293;51.464;-2.566;2024-03-02T11:11:29;5.70;99.90
10492;DHT22;5293;51.464;-2.566;2024-03-02T11:13:57;5.70;99.90
10492;DHT22;5293;51.464;-2.566;2024-03-02T11:16:38;5.70;99.90
10492;DHT22;5293;51.464;-2.566;2024-03-02T11:19:12;5.60;99.90
10492;DHT22;5293;51.464;-2.566;2024-03-02T11:21:38;5.60;99.90
10492;DHT22;5293;51.464;-2.566;2024-03-02T11:24:29;5.60;99.90
10492;DHT22;5293;51.464;-2.566;2024-03-02T11:26:59;5.50;99.90
10492;DHT22;5293;51.464;-2.566;2024-03-02T11:29:46;5.40;99.90
10492;DHT22;5293;51.464;-2.566;2024-03-02T11:34:42;5.50;99.90
10492;DHT22;5293;51.464;-2.566;2024-03-02T11:37:13;5.30;99.90
10492;DHT22;5293;51.464;-2.566;2024-03-02T11:39:39;5.20;99.90
10492;DHT22;5293;51.464;-2.566;2024-03-02T11:42:06;5.10;99.90
10492;DHT22;5293;51.464;-2.566;2024-03-02T11:44:34;5.10;99.90
10492;DHT22;5293;51.464;-2.566;2024-03-02T11:47:01;5.00;99.90
10492;DHT22;5293;51.464;-2.566;2024-03-02T11:49:56;5.00;99.90
10492;DHT22;5293;51.464;-2.566;2024-03-02T11:52:22;4.90;99.90
10492;DHT22;5293;51.464;-2.566;2024-03-02T11:54:49;4.90;99.90
10492;DHT22;5293;51.464;-2.566;2024-03-02T11:57:18;4.90;99.90
10492;DHT22;5293;51.464;-2.566;2024-03-02T11:59:45;4.90;99.90
10492;DHT22;5293;51.464;-2.566;2024-03-02T12:02:21;4.80;99.90
10492;DHT22;5293;51.464;-2.566;2024-03-02T12:04:49;4.90;99.90
10492;DHT22;5293;51.464;-2.566;2024-03-02T12:07:19;5.00;99.90
10492;DHT22;5293;51.464;-2.566;2024-03-02T12:09:49;5.10;99.90
10492;DHT22;5293;51.464;-2.566;2024-03-02T12:12:15;5.20;99.90
10492;DHT22;5293;51.464;-2.566;2024-03-02T12:14:51;5.10;99.90
10492;DHT22;5293;51.464;-2.566;2024-03-02T12:17:17;5.20;99.90
10492;DHT22;5293;51.464;-2.566;2024-03-02T12:19:43;5.20;99.90
10492;DHT22;5293;51.464;-2.566;2024-03-02T12:22:09;5.20;99.90
10492;DHT22;5293;51.464;-2.566;2024-03-02T12:24:35;5.20;99.90
10492;DHT22;5293;51.464;-2.566;2024-03-02T12:27:03;5.40;99.90
10492;DHT22;5293;51.464;-2.566;2024-03-02T12:29:30;5.30;99.90
10492;DHT22;5293;51.464;-2.566;2024-03-02T12:31:55;5.40;99.90
10492;DHT22;5293;51.464;-2.566;2024-03-02T12:34:22;5.70;99.90
10492;DHT22;5293;51.464;-2.566;2024-03-02T12:36:49;5.70;99.90
10492;DHT22;5293;51.464;-2.566;2024-03-02T12:39:20;5.80;99.90
10492;DHT22;5293;51.464;-2.566;2024-03-02T12:41:48;5.50;99.90
10492;DHT22;5293;51.464;-2.566;2024-03-02T12:44:19;5.60;99.90
10492;DHT22;5293;51.464;-2.566;2024-03-02T12:46:46;5.60;99.90
10492;DHT22;5293;51.464;-2.566;2024-03-02T12:49:13;5.70;99.90
10492;DHT22;5293;51.464;-2.566;2024-03-02T12:51:40;5.70;99.90
10492;DHT22;5293;51.464;-2.566;2024-03-02T12:54:10;5.70;99.90
10492;DHT22;5293;51.464;-2.566;2024-03-02T12:56:40;5.60;99.90
10492;DHT22;5293;51.464;-2.566;2024-03-02T12:59:06;5.60;99.90
10492;DHT22;5293;51.464;-2.566;2024-03-02T13:01:32;5.50;99.90
10492;DHT22;5293;51.464;-2.566;2024-03-02T13:03:58;5.40;99.90
10492;DHT22;5293;51.464;-2.566;2024-03-02T13:06:25;5.40;99.90
10492;DHT22;5293;51.464;-2.566;2024-03-02T13:08:54;5.40;99.90
10492;DHT22;5293;51.464;-2.566;2024-03-02T13:11:22;5.50;99.90
10492;DHT22;5293;51.464;-2.566;2024-03-02T13:13:48;5.50;99.90
10492;DHT22;5293;51.464;-2.566;2024-03-02T13:16:14;5.60;99.90
10492;DHT22;5293;51.464;-2.566;2024-03-02T13:18:41;5.60;99.90
10492;DHT22;5293;51.464;-2.566;2024-03-02T13:21:08;5.60;99.90
10492;DHT22;5293;51.464;-2.566;2024-03-02T13:23:34;5.60;99.90
10492;DHT22;5293;51.464;-2.566;2024-03-02T13:26:00;5.70;99.90
10492;DHT22;5293;51.464;-2.566;2024-03-02T13:28:26;5.70;99.90
10492;DHT22;5293;51.464;-2.566;2024-03-02T13:30:52;5.70;99.90
10492;DHT22;5293;51.464;-2.566;2024-03-02T13:33:18;5.80;99.90
10492;DHT22;5293;51.464;-2.566;2024-03-02T13:35:50;5.90;99.90
10492;DHT22;5293;51.464;-2.566;2024-03-02T13:38:19;5.90;99.90
10492;DHT22;5293;51.464;-2.566;2024-03-02T13:40:46;5.90;99.90
10492;DHT22;5293;51.464;-2.566;2024-03-02T13:43:16;5.90;99.90
10492;DHT22;5293;51.464;-2.566;2024-03-02T13:45:43;6.00;99.90
10492;DHT22;5293;51.464;-2.566;2024-03-02T13:48:08;6.10;99.90
10492;DHT22;5293;51.464;-2.566;2024-03-02T13:50:35;6.10;99.90
10492;DHT22;5293;51.464;-2.566;2024-03-02T13:53:00;6.10;99.90
10492;DHT22;5293;51.464;-2.566;2024-03-02T13:55:26;6.20;99.90
10492;DHT22;5293;51.464;-2.566;2024-03-02T13:57:51;6.20;99.90
10492;DHT22;5293;51.464;-2.566;2024-03-02T14:00:18;6.30;99.90
10492;DHT22;5293;51.464;-2.566;2024-03-02T14:02:45;6.40;99.90
10492;DHT22;5293;51.464;-2.566;2024-03-02T14:05:11;6.30;99.90
10492;DHT22;5293;51.464;-2.566;2024-03-02T14:07:42;6.30;99.90
10492;DHT22;5293;51.464;-2.566;2024-03-02T14:10:08;6.20;99.90
10492;DHT22;5293;51.464;-2.566;2024-03-02T14:12:34;6.30;99.90
10492;DHT22;5293;51.464;-2.566;2024-03-02T14:15:00;6.30;99.90
10492;DHT22;5293;51.464;-2.566;2024-03-02T14:17:28;6.40;99.90
10492;DHT22;5293;51.464;-2.566;2024-03-02T14:19:53;6.40;99.90
10492;DHT22;5293;51.464;-2.566;2024-03-02T14:22:22;6.20;99.90
10492;DHT22;5293;51.464;-2.566;2024-03-02T14:24:47;6.10;99.90
10492;DHT22;5293;51.464;-2.566;2024-03-02T14:27:14;6.20;99.90
10492;DHT22;5293;51.464;-2.566;2024-03-02T14:29:42;6.30;99.90
10492;DHT22;5293;51.464;-2.566;2024-03-02T14:32:07;6.40;99.90
10492;DHT22;5293;51.464;-2.566;2024-03-02T14:34:33;6.40;99.90
10492;DHT22;5293;51.464;-2.566;2024-03-02T14:36:59;6.40;99.90
10492;DHT22;5293;51.464;-2.566;2024-03-02T14:39:26;6.40;99.90
10492;DHT22;5293;51.464;-2.566;2024-03-02T14:41:52;6.30;99.90
10492;DHT22;5293;51.464;-2.566;2024-03-02T14:44:17;6.20;99.90
10492;DHT22;5293;51.464;-2.566;2024-03-02T14:46:46;6.20;99.90
10492;DHT22;5293;51.464;-2.566;2024-03-02T14:49:12;6.30;99.90
10492;DHT22;5293;51.464;-2.566;2024-03-02T14:51:38;6.20;99.90
10492;DHT22;5293;51.464;-2.566;2024-03-02T14:54:04;6.10;99.90
10492;DHT22;5293;51.464;-2.566;2024-03-02T14:56:29;6.20;99.90
10492;DHT22;5293;51.464;-2.566;2024-03-02T14:58:55;6.20;99.90
10492;DHT22;5293;51.464;-2.566;2024-03-02T15:01:21;6.20;99.90
10492;DHT22;5293;51.464;-2.566;2024-03-02T15:03:49;6.10;99.90
10492;DHT22;5293;51.464;-2.566;2024-03-02T15:06:15;6.10;99.90
10492;DHT22;5293;51.464;-2.566;2024-03-02T15:08:41;6.10;99.90
10492;DHT22;5293;51.464;-2.566;2024-03-02T15:11:08;6.10;99.90
10492;DHT22;5293;51.464;-2.566;2024-03-02T15:13:34;6.10;99.90
10492;DHT22;5293;51.464;-2.566;2024-03-02T15:16:00;6.10;99.90
10492;DHT22;5293;51.464;-2.566;2024-03-02T15:18:26;6.20;99.90
10492;DHT22;5293;51.464;-2.566;2024-03-02T15:20:52;6.30;99.90
10492;DHT22;5293;51.464;-2.566;2024-03-02T15:23:18;6.30;99.90
10492;DHT22;5293;51.464;-2.566;2024-03-02T15:25:44;6.40;99.90
10492;DHT22;5293;51.464;-2.566;2024-03-02T15:28:10;6.50;99.90
10492;DHT22;5293;51.464;-2.566;2024-03-02T15:30:35;6.60;99.90
10492;DHT22;5293;51.464;-2.566;2024-03-02T15:33:02;6.80;99.90
10492;DHT22;5293;51.464;-2.566;2024-03-02T15:35:27;6.80;99.90
10492;DHT22;5293;51.464;-2.566;2024-03-02T15:37:53;6.80;99.90
10492;DHT22;5293;51.464;-2.566;2024-03-02T15:40:19;7.00;99.90
10492;DHT22;5293;51.464;-2.566;2024-03-02T15:42:44;7.10;99.90
10492;DHT22;5293;51.464;-2.566;2024-03-02T15:45:10;7.00;99.90
10492;DHT22;5293;51.464;-2.566;2024-03-02T15:47:36;7.00;99.90
10492;DHT22;5293;51.464;-2.566;2024-03-02T15:50:04;7.00;99.90